sensor_id;sensor_type;location;lat;lon;timestamp;pressure;altitude;pressure_sealevel;temperature;humidity
36834;BME280;48003;52.084;5.224;2022-12-18T00:01:00;102954.0;;;-0.61;80.2
36834;BME280;48003;52.084;5.224;2022-12-18T00:02:36;102951.0;;;-0.47;80.16
36834;BME280;48003;52.084;5.224;2022-12-18T00:05:59;102950.0;;;-0.56;79.19
36834;BME280;48003;52.084;5.224;2022-12-18T00:07:36;102940.00000000001;;;-0.64;79.47
36834;BME280;48003;52.084;5.224;2022-12-18T00:09:12;102936.99999999999;;;-0.3;78.81
36834;BME280;48003;52.084;5.224;2022-12-18T00:10:48;102929.0;;;-0.61;79.56
36834;BME280;48003;52.084;5.224;2022-12-18T00:14:00;102922.0;;;-0.34;79.11
36834;BME280;48003;52.084;5.224;2022-12-18T00:15:38;102927.0;;;-0.42;78.22
36834;BME280;48003;52.084;5.224;2022-12-18T00:17:15;102916.00000000001;;;-0.11;77.99
36834;BME280;48003;52.084;5.224;2022-12-18T00:20:35;102922.0;;;-0.4;78.42
36834;BME280;48003;52.084;5.224;2022-12-18T00:22:12;102923.0;;;-0.83;79.06
36834;BME280;48003;52.084;5.224;2022-12-18T00:23:49;102918.0;;;-1.04;80.22
36834;BME280;48003;52.084;5.224;2022-12-18T00:25:27;102924.0;;;-1.13;80.27
36834;BME280;48003;52.084;5.224;2022-12-18T00:28:39;102921.0;;;-1.07;80.49
36834;BME280;48003;52.084;5.224;2022-12-18T00:30:15;102926.0;;;-0.72;79.55
36834;BME280;48003;52.084;5.224;2022-12-18T00:31:52;102927.0;;;-1.04;79.87
36834;BME280;48003;52.084;5.224;2022-12-18T00:35:07;102920.0;;;-0.94;79.69
36834;BME280;48003;52.084;5.224;2022-12-18T00:36:43;102915.00000000001;;;-0.87;79.74
36834;BME280;48003;52.084;5.224;2022-12-18T00:38:19;102917.0;;;-0.9;79.8
36834;BME280;48003;52.084;5.224;2022-12-18T00:39:55;102913.00000000001;;;-0.54;78.66
36834;BME280;48003;52.084;5.224;2022-12-18T00:43:09;102921.0;;;-0.34;77.83
36834;BME280;48003;52.084;5.224;2022-12-18T00:44:45;102916.00000000001;;;-0.6;78.89
36834;BME280;48003;52.084;5.224;2022-12-18T00:46:21;102913.00000000001;;;-1.11;79.58
36834;BME280;48003;52.084;5.224;2022-12-18T00:49:34;102917.0;;;-1.46;80.69
36834;BME280;48003;52.084;5.224;2022-12-18T00:51:09;102915.00000000001;;;-1.41;81.49
36834;BME280;48003;52.084;5.224;2022-12-18T00:52:46;102917.0;;;-0.71;79.59
36834;BME280;48003;52.084;5.224;2022-12-18T00:55:59;102916.00000000001;;;-1.44;80.91
36834;BME280;48003;52.084;5.224;2022-12-18T00:57:35;102915.00000000001;;;-1.5;81.77
36834;BME280;48003;52.084;5.224;2022-12-18T01:00:48;102914.00000000001;;;-0.57;78.69
36834;BME280;48003;52.084;5.224;2022-12-18T01:04:01;102914.00000000001;;;-0.59;78.3
36834;BME280;48003;52.084;5.224;2022-12-18T01:05:38;102917.0;;;-0.67;78.5
36834;BME280;48003;52.084;5.224;2022-12-18T01:07:15;102922.0;;;-0.66;78.91
36834;BME280;48003;52.084;5.224;2022-12-18T01:10:28;102926.0;;;-0.67;78.5
36834;BME280;48003;52.084;5.224;2022-12-18T01:12:05;102927.0;;;-1.28;80.22
36834;BME280;48003;52.084;5.224;2022-12-18T01:13:42;102926.0;;;-0.98;79.74
36834;BME280;48003;52.084;5.224;2022-12-18T01:16:55;102933.0;;;-1.12;80.2
36834;BME280;48003;52.084;5.224;2022-12-18T01:18:32;102925.0;;;-0.89;78.94
36834;BME280;48003;52.084;5.224;2022-12-18T01:20:09;102917.0;;;-1.25;80.53
36834;BME280;48003;52.084;5.224;2022-12-18T01:21:47;102917.0;;;-1.52;81.37
36834;BME280;48003;52.084;5.224;2022-12-18T01:25:04;102921.0;;;-1.27;80.88
36834;BME280;48003;52.084;5.224;2022-12-18T01:26:41;102926.0;;;-1.55;81.41
36834;BME280;48003;52.084;5.224;2022-12-18T01:28:17;102923.0;;;-1.01;80.03
36834;BME280;48003;52.084;5.224;2022-12-18T01:31:32;102923.0;;;-0.93;79.72
36834;BME280;48003;52.084;5.224;2022-12-18T01:33:09;102917.0;;;-1.0;79.74
36834;BME280;48003;52.084;5.224;2022-12-18T01:34:45;102921.0;;;-0.95;79.91
36834;BME280;48003;52.084;5.224;2022-12-18T01:36:23;102923.0;;;-1.03;79.58
36834;BME280;48003;52.084;5.224;2022-12-18T01:39:37;102931.0;;;-1.3;79.94
36834;BME280;48003;52.084;5.224;2022-12-18T01:41:19;102942.0;;;-1.63;81.27
36834;BME280;48003;52.084;5.224;2022-12-18T01:42:55;102941.00000000001;;;-1.7;81.97
36834;BME280;48003;52.084;5.224;2022-12-18T01:46:57;102933.0;;;-1.69;81.86
36834;BME280;48003;52.084;5.224;2022-12-18T01:50:11;102929.0;;;-1.4;80.94
36834;BME280;48003;52.084;5.224;2022-12-18T01:51:51;102934.99999999999;;;-1.08;80.38
36834;BME280;48003;52.084;5.224;2022-12-18T01:53:28;102941.00000000001;;;-0.8;78.58
36834;BME280;48003;52.084;5.224;2022-12-18T01:56:42;102939.00000000001;;;-0.87;79.22
36834;BME280;48003;52.084;5.224;2022-12-18T01:58:19;102940.00000000001;;;-1.08;79.3
36834;BME280;48003;52.084;5.224;2022-12-18T02:00:01;102944.0;;;-0.55;78.05
36834;BME280;48003;52.084;5.224;2022-12-18T02:01:43;102943.0;;;-0.98;78.02
36834;BME280;48003;52.084;5.224;2022-12-18T02:04:56;102942.0;;;-0.82;77.86
36834;BME280;48003;52.084;5.224;2022-12-18T02:06:36;102940.00000000001;;;-0.77;77.55
36834;BME280;48003;52.084;5.224;2022-12-18T02:08:20;102939.00000000001;;;-0.77;77.12
36834;BME280;48003;52.084;5.224;2022-12-18T02:10:05;102943.0;;;-0.44;76.69
36834;BME280;48003;52.084;5.224;2022-12-18T02:13:36;102946.0;;;-0.93;77.27
36834;BME280;48003;52.084;5.224;2022-12-18T02:15:24;102946.0;;;-0.7;76.39
36834;BME280;48003;52.084;5.224;2022-12-18T02:17:06;102944.0;;;-0.88;77.09
36834;BME280;48003;52.084;5.224;2022-12-18T02:18:50;102948.0;;;-0.77;76.62
36834;BME280;48003;52.084;5.224;2022-12-18T02:20:34;102951.0;;;-0.45;75.19
36834;BME280;48003;52.084;5.224;2022-12-18T02:24:17;102954.0;;;-0.2;74.23
36834;BME280;48003;52.084;5.224;2022-12-18T02:26:06;102951.0;;;-0.36;74.3
36834;BME280;48003;52.084;5.224;2022-12-18T02:27:49;102949.0;;;-0.03;73.41
36834;BME280;48003;52.084;5.224;2022-12-18T02:29:29;102942.0;;;-0.08;72.88
36834;BME280;48003;52.084;5.224;2022-12-18T02:31:12;102947.0;;;-0.15;72.95
36834;BME280;48003;52.084;5.224;2022-12-18T02:34:34;102945.0;;;-0.17;72.94
36834;BME280;48003;52.084;5.224;2022-12-18T02:36:14;102944.0;;;-0.3;73.11
36834;BME280;48003;52.084;5.224;2022-12-18T02:37:53;102946.0;;;-0.3;73.22
36834;BME280;48003;52.084;5.224;2022-12-18T02:39:30;102942.0;;;-0.38;73.22
36834;BME280;48003;52.084;5.224;2022-12-18T02:42:46;102943.0;;;-0.54;73.5
36834;BME280;48003;52.084;5.224;2022-12-18T02:44:22;102944.0;;;-0.66;73.88
36834;BME280;48003;52.084;5.224;2022-12-18T02:46:00;102941.00000000001;;;-0.69;74.13
36834;BME280;48003;52.084;5.224;2022-12-18T02:47:56;102929.0;;;-0.71;74.17
36834;BME280;48003;52.084;5.224;2022-12-18T02:49:38;102928.0;;;-0.81;74.16
36834;BME280;48003;52.084;5.224;2022-12-18T02:53:10;102930.0;;;-0.87;74.27
36834;BME280;48003;52.084;5.224;2022-12-18T02:54:57;102929.0;;;-0.95;74.24
36834;BME280;48003;52.084;5.224;2022-12-18T02:56:46;102923.0;;;-0.97;74.41
36834;BME280;48003;52.084;5.224;2022-12-18T02:58:30;102922.0;;;-0.82;74.11
36834;BME280;48003;52.084;5.224;2022-12-18T03:00:12;102923.0;;;-0.71;73.73
36834;BME280;48003;52.084;5.224;2022-12-18T03:03:37;102918.0;;;-0.64;73.44
36834;BME280;48003;52.084;5.224;2022-12-18T03:05:20;102918.0;;;-0.61;73.24
36834;BME280;48003;52.084;5.224;2022-12-18T03:07:02;102911.99999999999;;;-0.54;72.88
36834;BME280;48003;52.084;5.224;2022-12-18T03:08:44;102907.0;;;-0.51;72.64
36834;BME280;48003;52.084;5.224;2022-12-18T03:12:09;102907.0;;;-0.68;72.64
36834;BME280;48003;52.084;5.224;2022-12-18T03:13:53;102907.0;;;-0.85;72.97
36834;BME280;48003;52.084;5.224;2022-12-18T03:15:35;102904.0;;;-0.95;73.3
36834;BME280;48003;52.084;5.224;2022-12-18T03:17:16;102903.0;;;-1.03;73.52
36834;BME280;48003;52.084;5.224;2022-12-18T03:18:58;102897.0;;;-1.04;73.63
36834;BME280;48003;52.084;5.224;2022-12-18T03:22:20;102891.00000000001;;;-1.06;73.59
36834;BME280;48003;52.084;5.224;2022-12-18T03:23:59;102884.99999999999;;;-1.13;73.84
36834;BME280;48003;52.084;5.224;2022-12-18T03:25:40;102882.0;;;-1.18;73.72
36834;BME280;48003;52.084;5.224;2022-12-18T03:27:20;102879.0;;;-1.24;73.86
36834;BME280;48003;52.084;5.224;2022-12-18T03:30:44;102878.0;;;-1.06;73.55
36834;BME280;48003;52.084;5.224;2022-12-18T03:32:26;102879.0;;;-1.13;73.42
36834;BME280;48003;52.084;5.224;2022-12-18T03:34:09;102878.0;;;-1.18;73.52
36834;BME280;48003;52.084;5.224;2022-12-18T03:35:49;102873.0;;;-1.23;73.64
36834;BME280;48003;52.084;5.224;2022-12-18T03:39:02;102877.0;;;-1.18;73.66
36834;BME280;48003;52.084;5.224;2022-12-18T03:40:48;102876.0;;;-1.08;73.25
36834;BME280;48003;52.084;5.224;2022-12-18T03:42:40;102871.0;;;-1.04;73.09
36834;BME280;48003;52.084;5.224;2022-12-18T03:44:27;102872.0;;;-0.94;72.7
36834;BME280;48003;52.084;5.224;2022-12-18T03:46:11;102872.0;;;-0.87;72.25
36834;BME280;48003;52.084;5.224;2022-12-18T03:49:40;102872.0;;;-1.21;72.56
36834;BME280;48003;52.084;5.224;2022-12-18T03:51:26;102871.0;;;-0.84;72.41
36834;BME280;48003;52.084;5.224;2022-12-18T03:53:15;102869.0;;;-0.68;71.58
36834;BME280;48003;52.084;5.224;2022-12-18T03:54:55;102863.00000000001;;;-0.56;71.14
36834;BME280;48003;52.084;5.224;2022-12-18T03:56:37;102867.0;;;-0.62;70.67
36834;BME280;48003;52.084;5.224;2022-12-18T04:00:00;102865.00000000001;;;-0.86;71.14
36834;BME280;48003;52.084;5.224;2022-12-18T04:01:40;102858.99999999999;;;-0.94;71.38
36834;BME280;48003;52.084;5.224;2022-12-18T04:03:19;102857.0;;;-0.96;71.61
36834;BME280;48003;52.084;5.224;2022-12-18T04:04:59;102846.0;;;-1.06;71.83
36834;BME280;48003;52.084;5.224;2022-12-18T04:08:16;102850.0;;;-1.04;71.69
36834;BME280;48003;52.084;5.224;2022-12-18T04:09:55;102852.0;;;-1.04;71.66
36834;BME280;48003;52.084;5.224;2022-12-18T04:11:32;102842.0;;;-1.07;71.67
36834;BME280;48003;52.084;5.224;2022-12-18T04:14:45;102840.00000000001;;;-1.13;71.64
36834;BME280;48003;52.084;5.224;2022-12-18T04:16:21;102832.0;;;-1.13;71.58
36834;BME280;48003;52.084;5.224;2022-12-18T04:17:57;102825.0;;;-1.14;71.61
36834;BME280;48003;52.084;5.224;2022-12-18T04:19:33;102828.0;;;-1.2;71.77
36834;BME280;48003;52.084;5.224;2022-12-18T04:22:47;102830.0;;;-1.41;72.09
36834;BME280;48003;52.084;5.224;2022-12-18T04:24:24;102829.0;;;-1.22;71.77
36834;BME280;48003;52.084;5.224;2022-12-18T04:26:00;102832.0;;;-1.22;72.02
36834;BME280;48003;52.084;5.224;2022-12-18T04:29:12;102831.0;;;-1.12;71.39
36834;BME280;48003;52.084;5.224;2022-12-18T04:30:49;102830.0;;;-1.26;71.24
36834;BME280;48003;52.084;5.224;2022-12-18T04:32:25;102831.0;;;-1.14;71.14
36834;BME280;48003;52.084;5.224;2022-12-18T04:35:37;102832.0;;;-1.51;71.72
36834;BME280;48003;52.084;5.224;2022-12-18T04:37:13;102842.0;;;-1.29;71.91
36834;BME280;48003;52.084;5.224;2022-12-18T04:38:49;102846.0;;;-1.22;71.52
36834;BME280;48003;52.084;5.224;2022-12-18T04:40:25;102848.0;;;-1.2;71.19
36834;BME280;48003;52.084;5.224;2022-12-18T04:43:38;102852.0;;;-1.04;70.77
36834;BME280;48003;52.084;5.224;2022-12-18T04:45:14;102859.99999999999;;;-1.3;71.55
36834;BME280;48003;52.084;5.224;2022-12-18T04:46:50;102859.99999999999;;;-1.77;72.22
36834;BME280;48003;52.084;5.224;2022-12-18T04:50:03;102867.0;;;-1.28;71.55
36834;BME280;48003;52.084;5.224;2022-12-18T04:51:40;102864.00000000001;;;-1.3;71.11
36834;BME280;48003;52.084;5.224;2022-12-18T04:53:16;102867.0;;;-1.01;70.69
36834;BME280;48003;52.084;5.224;2022-12-18T04:56:30;102867.0;;;-1.26;71.08
36834;BME280;48003;52.084;5.224;2022-12-18T04:58:07;102868.0;;;-1.28;70.66
36834;BME280;48003;52.084;5.224;2022-12-18T04:59:43;102874.0;;;-1.44;71.42
36834;BME280;48003;52.084;5.224;2022-12-18T05:02:55;102875.0;;;-1.3;71.33
36834;BME280;48003;52.084;5.224;2022-12-18T05:04:32;102883.99999999999;;;-2.0;72.78
36834;BME280;48003;52.084;5.224;2022-12-18T05:06:09;102881.0;;;-1.29;71.24
36834;BME280;48003;52.084;5.224;2022-12-18T05:07:45;102880.0;;;-1.08;70.34
36834;BME280;48003;52.084;5.224;2022-12-18T05:11:00;102884.99999999999;;;-1.12;70.45
36834;BME280;48003;52.084;5.224;2022-12-18T05:12:37;102883.0;;;-1.18;70.55
36834;BME280;48003;52.084;5.224;2022-12-18T05:14:13;102883.0;;;-1.15;70.27
36834;BME280;48003;52.084;5.224;2022-12-18T05:17:28;102884.99999999999;;;-1.15;70.55
36834;BME280;48003;52.084;5.224;2022-12-18T05:19:04;102888.00000000001;;;-0.98;69.83
36834;BME280;48003;52.084;5.224;2022-12-18T05:20:41;102891.00000000001;;;-1.17;70.03
36834;BME280;48003;52.084;5.224;2022-12-18T05:22:17;102890.00000000001;;;-1.03;69.45
36834;BME280;48003;52.084;5.224;2022-12-18T05:25:29;102891.00000000001;;;-0.94;69.27
36834;BME280;48003;52.084;5.224;2022-12-18T05:27:05;102897.0;;;-1.07;69.27
36834;BME280;48003;52.084;5.224;2022-12-18T05:28:42;102892.0;;;-1.25;69.78
36834;BME280;48003;52.084;5.224;2022-12-18T05:31:54;102896.0;;;-1.31;70.25
36834;BME280;48003;52.084;5.224;2022-12-18T05:33:31;102903.0;;;-1.41;70.73
36834;BME280;48003;52.084;5.224;2022-12-18T05:35:10;102893.0;;;-1.34;70.25
36834;BME280;48003;52.084;5.224;2022-12-18T05:38:25;102892.0;;;-1.11;69.66
36834;BME280;48003;52.084;5.224;2022-12-18T05:40:03;102892.0;;;-1.21;69.67
36834;BME280;48003;52.084;5.224;2022-12-18T05:41:40;102889.00000000001;;;-1.3;69.83
36834;BME280;48003;52.084;5.224;2022-12-18T05:43:17;102879.0;;;-1.35;70.02
36834;BME280;48003;52.084;5.224;2022-12-18T05:46:30;102873.0;;;-1.4;70.27
36834;BME280;48003;52.084;5.224;2022-12-18T05:48:06;102872.0;;;-1.43;70.56
36834;BME280;48003;52.084;5.224;2022-12-18T05:49:43;102876.0;;;-1.62;70.52
36834;BME280;48003;52.084;5.224;2022-12-18T05:52:58;102880.0;;;-1.41;70.66
36834;BME280;48003;52.084;5.224;2022-12-18T05:54:34;102872.0;;;-1.42;70.39
36834;BME280;48003;52.084;5.224;2022-12-18T05:56:13;102872.0;;;-1.3;70.25
36834;BME280;48003;52.084;5.224;2022-12-18T05:57:50;102864.00000000001;;;-1.17;69.8
36834;BME280;48003;52.084;5.224;2022-12-18T06:01:08;102867.0;;;-1.14;69.52
36834;BME280;48003;52.084;5.224;2022-12-18T06:02:46;102859.99999999999;;;-1.34;70.02
36834;BME280;48003;52.084;5.224;2022-12-18T06:04:23;102857.0;;;-1.37;70.11
36834;BME280;48003;52.084;5.224;2022-12-18T06:07:35;102855.0;;;-1.25;70.08
36834;BME280;48003;52.084;5.224;2022-12-18T06:09:12;102850.0;;;-1.27;70.08
36834;BME280;48003;52.084;5.224;2022-12-18T06:10:50;102847.0;;;-1.25;69.66
36834;BME280;48003;52.084;5.224;2022-12-18T06:14:04;102849.0;;;-1.31;69.94
36834;BME280;48003;52.084;5.224;2022-12-18T06:15:41;102841.00000000001;;;-1.42;70.3
36834;BME280;48003;52.084;5.224;2022-12-18T06:17:17;102834.99999999999;;;-1.33;70.08
36834;BME280;48003;52.084;5.224;2022-12-18T06:18:55;102839.00000000001;;;-1.35;69.98
36834;BME280;48003;52.084;5.224;2022-12-18T06:22:08;102838.00000000001;;;-1.37;70.16
36834;BME280;48003;52.084;5.224;2022-12-18T06:23:44;102839.00000000001;;;-1.37;69.77
36834;BME280;48003;52.084;5.224;2022-12-18T06:25:20;102838.00000000001;;;-1.25;69.83
36834;BME280;48003;52.084;5.224;2022-12-18T06:28:33;102845.0;;;-1.35;69.72
36834;BME280;48003;52.084;5.224;2022-12-18T06:30:10;102848.0;;;-1.49;70.02
36834;BME280;48003;52.084;5.224;2022-12-18T06:31:46;102846.0;;;-1.43;70.34
36834;BME280;48003;52.084;5.224;2022-12-18T06:35:03;102839.00000000001;;;-1.43;70.69
36834;BME280;48003;52.084;5.224;2022-12-18T06:36:40;102834.99999999999;;;-1.1;69.41
36834;BME280;48003;52.084;5.224;2022-12-18T06:38:16;102832.0;;;-1.11;68.97
36834;BME280;48003;52.084;5.224;2022-12-18T06:39:52;102830.0;;;-1.15;69.16
36834;BME280;48003;52.084;5.224;2022-12-18T06:43:05;102825.0;;;-1.21;69.52
36834;BME280;48003;52.084;5.224;2022-12-18T06:44:42;102826.0;;;-1.15;69.38
36834;BME280;48003;52.084;5.224;2022-12-18T06:46:18;102825.0;;;-1.13;69.17
36834;BME280;48003;52.084;5.224;2022-12-18T06:49:31;102814.00000000001;;;-1.19;69.34
36834;BME280;48003;52.084;5.224;2022-12-18T06:51:08;102809.99999999999;;;-1.19;69.47
36834;BME280;48003;52.084;5.224;2022-12-18T06:52:44;102807.0;;;-1.36;70.13
36834;BME280;48003;52.084;5.224;2022-12-18T06:54:20;102801.0;;;-1.73;70.84
36834;BME280;48003;52.084;5.224;2022-12-18T06:57:37;102800.0;;;-1.56;70.22
36834;BME280;48003;52.084;5.224;2022-12-18T06:59:13;102797.0;;;-1.85;71.39
36834;BME280;48003;52.084;5.224;2022-12-18T07:00:50;102794.0;;;-1.84;71.62
36834;BME280;48003;52.084;5.224;2022-12-18T07:04:03;102800.0;;;-1.61;71.47
36834;BME280;48003;52.084;5.224;2022-12-18T07:05:40;102798.0;;;-1.25;69.94
36834;BME280;48003;52.084;5.224;2022-12-18T07:07:17;102798.0;;;-1.58;71.23
36834;BME280;48003;52.084;5.224;2022-12-18T07:10:31;102797.0;;;-1.44;70.77
36834;BME280;48003;52.084;5.224;2022-12-18T07:12:07;102789.00000000001;;;-1.73;71.19
36834;BME280;48003;52.084;5.224;2022-12-18T07:13:43;102784.99999999999;;;-1.48;71.02
36834;BME280;48003;52.084;5.224;2022-12-18T07:15:20;102783.0;;;-1.91;72.25
36834;BME280;48003;52.084;5.224;2022-12-18T07:18:33;102779.0;;;-2.0;72.3
36834;BME280;48003;52.084;5.224;2022-12-18T07:20:10;102783.99999999999;;;-2.47;73.91
36834;BME280;48003;52.084;5.224;2022-12-18T07:21:46;102770.0;;;-1.83;72.89
36834;BME280;48003;52.084;5.224;2022-12-18T07:24:58;102770.0;;;-1.68;71.78
36834;BME280;48003;52.084;5.224;2022-12-18T07:26:35;102771.0;;;-1.93;72.52
36834;BME280;48003;52.084;5.224;2022-12-18T07:28:11;102778.0;;;-2.55;74.49
36834;BME280;48003;52.084;5.224;2022-12-18T07:31:24;102781.0;;;-1.82;73.08
36834;BME280;48003;52.084;5.224;2022-12-18T07:33:00;102775.0;;;-1.6;72.17
36834;BME280;48003;52.084;5.224;2022-12-18T07:34:37;102765.00000000001;;;-2.13;73.03
36834;BME280;48003;52.084;5.224;2022-12-18T07:36:13;102763.00000000001;;;-1.66;71.92
36834;BME280;48003;52.084;5.224;2022-12-18T07:39:26;102752.0;;;-1.67;71.83
36834;BME280;48003;52.084;5.224;2022-12-18T07:41:04;102748.0;;;-1.54;71.72
36834;BME280;48003;52.084;5.224;2022-12-18T07:42:41;102749.0;;;-1.44;71.22
36834;BME280;48003;52.084;5.224;2022-12-18T07:45:55;102743.0;;;-2.04;72.55
36834;BME280;48003;52.084;5.224;2022-12-18T07:47:34;102742.0;;;-1.79;72.56
36834;BME280;48003;52.084;5.224;2022-12-18T07:49:10;102743.0;;;-1.54;71.73
36834;BME280;48003;52.084;5.224;2022-12-18T07:52:23;102736.99999999999;;;-1.56;72.0
36834;BME280;48003;52.084;5.224;2022-12-18T07:53:59;102740.00000000001;;;-1.67;71.78
36834;BME280;48003;52.084;5.224;2022-12-18T07:55:35;102730.0;;;-1.93;72.66
36834;BME280;48003;52.084;5.224;2022-12-18T07:57:12;102733.99999999999;;;-1.69;72.44
36834;BME280;48003;52.084;5.224;2022-12-18T08:00:24;102733.0;;;-1.72;72.37
36834;BME280;48003;52.084;5.224;2022-12-18T08:02:00;102732.0;;;-1.95;73.44
36834;BME280;48003;52.084;5.224;2022-12-18T08:03:39;102730.0;;;-1.38;72.02
36834;BME280;48003;52.084;5.224;2022-12-18T08:06:51;102715.00000000001;;;-1.26;71.53
36834;BME280;48003;52.084;5.224;2022-12-18T08:08:27;102714.00000000001;;;-1.36;71.72
36834;BME280;48003;52.084;5.224;2022-12-18T08:10:05;102717.0;;;-1.56;72.73
36834;BME280;48003;52.084;5.224;2022-12-18T08:13:19;102724.0;;;-1.68;72.86
36834;BME280;48003;52.084;5.224;2022-12-18T08:14:54;102727.0;;;-1.59;73.23
36834;BME280;48003;52.084;5.224;2022-12-18T08:16:31;102728.0;;;-1.46;72.41
36834;BME280;48003;52.084;5.224;2022-12-18T08:18:08;102739.00000000001;;;-1.53;73.19
36834;BME280;48003;52.084;5.224;2022-12-18T08:21:21;102740.00000000001;;;-2.01;74.23
36834;BME280;48003;52.084;5.224;2022-12-18T08:22:58;102747.0;;;-1.94;74.47
36834;BME280;48003;52.084;5.224;2022-12-18T08:24:34;102746.0;;;-2.16;75.08
36834;BME280;48003;52.084;5.224;2022-12-18T08:27:47;102750.0;;;-2.0;75.11
36834;BME280;48003;52.084;5.224;2022-12-18T08:29:24;102752.0;;;-2.09;75.13
36834;BME280;48003;52.084;5.224;2022-12-18T08:31:00;102755.0;;;-2.38;75.81
36834;BME280;48003;52.084;5.224;2022-12-18T08:34:12;102749.0;;;-2.19;75.83
36834;BME280;48003;52.084;5.224;2022-12-18T08:35:48;102749.0;;;-2.18;75.56
36834;BME280;48003;52.084;5.224;2022-12-18T08:37:24;102754.0;;;-2.39;76.2
36834;BME280;48003;52.084;5.224;2022-12-18T08:39:00;102756.0;;;-2.16;75.78
36834;BME280;48003;52.084;5.224;2022-12-18T08:42:12;102757.0;;;-2.16;75.62
36834;BME280;48003;52.084;5.224;2022-12-18T08:43:48;102747.0;;;-2.12;75.22
36834;BME280;48003;52.084;5.224;2022-12-18T08:45:25;102746.0;;;-2.09;75.45
36834;BME280;48003;52.084;5.224;2022-12-18T08:48:37;102734.99999999999;;;-2.08;75.3
36834;BME280;48003;52.084;5.224;2022-12-18T08:50:14;102733.0;;;-1.64;74.59
36834;BME280;48003;52.084;5.224;2022-12-18T08:51:54;102733.99999999999;;;-1.75;74.27
36834;BME280;48003;52.084;5.224;2022-12-18T08:55:08;102733.0;;;-1.5;73.94
36834;BME280;48003;52.084;5.224;2022-12-18T08:56:44;102740.00000000001;;;-1.32;73.41
36834;BME280;48003;52.084;5.224;2022-12-18T08:58:21;102728.0;;;-0.96;72.19
36834;BME280;48003;52.084;5.224;2022-12-18T08:59:57;102733.0;;;-1.32;72.52
36834;BME280;48003;52.084;5.224;2022-12-18T09:03:11;102721.0;;;-1.43;73.22
36834;BME280;48003;52.084;5.224;2022-12-18T09:04:48;102719.0;;;-1.31;73.11
36834;BME280;48003;52.084;5.224;2022-12-18T09:06:24;102720.0;;;-1.37;73.58
36834;BME280;48003;52.084;5.224;2022-12-18T09:09:36;102722.0;;;-1.51;73.7
36834;BME280;48003;52.084;5.224;2022-12-18T09:11:14;102721.0;;;-1.2;73.36
36834;BME280;48003;52.084;5.224;2022-12-18T09:12:54;102733.0;;;-1.19;73.16
36834;BME280;48003;52.084;5.224;2022-12-18T09:14:30;102743.0;;;-1.47;73.77
36834;BME280;48003;52.084;5.224;2022-12-18T09:17:43;102733.0;;;-1.03;72.67
36834;BME280;48003;52.084;5.224;2022-12-18T09:19:19;102734.99999999999;;;-1.27;73.39
36834;BME280;48003;52.084;5.224;2022-12-18T09:20:55;102726.0;;;-1.09;73.2
36834;BME280;48003;52.084;5.224;2022-12-18T09:24:12;102736.99999999999;;;-1.04;72.7
36834;BME280;48003;52.084;5.224;2022-12-18T09:25:49;102741.00000000001;;;-1.12;72.37
36834;BME280;48003;52.084;5.224;2022-12-18T09:27:25;102741.00000000001;;;-1.37;73.64
36834;BME280;48003;52.084;5.224;2022-12-18T09:30:39;102744.0;;;-1.28;74.02
36834;BME280;48003;52.084;5.224;2022-12-18T09:32:16;102742.0;;;-1.36;73.75
36834;BME280;48003;52.084;5.224;2022-12-18T09:33:54;102733.0;;;-1.51;74.75
36834;BME280;48003;52.084;5.224;2022-12-18T09:35:31;102722.0;;;-1.25;73.74
36834;BME280;48003;52.084;5.224;2022-12-18T09:38:44;102723.0;;;-1.4;74.22
36834;BME280;48003;52.084;5.224;2022-12-18T09:40:25;102714.00000000001;;;-1.4;74.44
36834;BME280;48003;52.084;5.224;2022-12-18T09:42:02;102708.99999999999;;;-1.32;74.66
36834;BME280;48003;52.084;5.224;2022-12-18T09:45:21;102699.0;;;-1.02;73.52
36834;BME280;48003;52.084;5.224;2022-12-18T09:47:04;102702.0;;;-1.09;73.75
36834;BME280;48003;52.084;5.224;2022-12-18T09:48:48;102696.0;;;-0.83;72.92
36834;BME280;48003;52.084;5.224;2022-12-18T09:50:29;102703.0;;;-0.69;72.77
36834;BME280;48003;52.084;5.224;2022-12-18T09:53:55;102699.0;;;-0.61;71.67
36834;BME280;48003;52.084;5.224;2022-12-18T09:55:34;102694.0;;;-0.66;72.62
36834;BME280;48003;52.084;5.224;2022-12-18T09:57:15;102698.0;;;-0.5;72.2
36834;BME280;48003;52.084;5.224;2022-12-18T09:58:57;102693.0;;;-0.09;70.91
36834;BME280;48003;52.084;5.224;2022-12-18T10:00:35;102683.99999999999;;;-0.41;71.52
36834;BME280;48003;52.084;5.224;2022-12-18T10:03:53;102682.0;;;-0.11;70.95
36834;BME280;48003;52.084;5.224;2022-12-18T10:05:35;102683.0;;;-0.71;71.59
36834;BME280;48003;52.084;5.224;2022-12-18T10:07:28;102683.0;;;-0.82;72.8
36834;BME280;48003;52.084;5.224;2022-12-18T10:09:20;102678.0;;;-0.81;72.7
36834;BME280;48003;52.084;5.224;2022-12-18T10:12:51;102672.0;;;-0.42;72.06
36834;BME280;48003;52.084;5.224;2022-12-18T10:14:38;102678.0;;;-0.62;72.08
36834;BME280;48003;52.084;5.224;2022-12-18T10:16:22;102683.0;;;-0.73;72.69
36834;BME280;48003;52.084;5.224;2022-12-18T10:18:07;102683.99999999999;;;-0.56;72.38
36834;BME280;48003;52.084;5.224;2022-12-18T10:19:59;102690.00000000001;;;-0.62;72.17
36834;BME280;48003;52.084;5.224;2022-12-18T10:21:43;102688.00000000001;;;-0.64;72.44
36834;BME280;48003;52.084;5.224;2022-12-18T10:25:17;102679.0;;;-0.33;71.37
36834;BME280;48003;52.084;5.224;2022-12-18T10:27:00;102683.0;;;-0.57;72.31
36834;BME280;48003;52.084;5.224;2022-12-18T10:28:45;102684.99999999999;;;-0.41;71.56
36834;BME280;48003;52.084;5.224;2022-12-18T10:30:24;102681.0;;;-0.52;72.27
36834;BME280;48003;52.084;5.224;2022-12-18T10:32:02;102675.0;;;-0.44;71.98
36834;BME280;48003;52.084;5.224;2022-12-18T10:35:18;102667.0;;;0.03;70.95
36834;BME280;48003;52.084;5.224;2022-12-18T10:36:56;102667.0;;;-0.12;71.33
36834;BME280;48003;52.084;5.224;2022-12-18T10:38:33;102666.00000000001;;;0.22;70.81
36834;BME280;48003;52.084;5.224;2022-12-18T10:41:49;102667.0;;;0.06;70.5
36834;BME280;48003;52.084;5.224;2022-12-18T10:43:27;102655.0;;;0.43;70.19
36834;BME280;48003;52.084;5.224;2022-12-18T10:45:10;102647.0;;;0.46;69.44
36834;BME280;48003;52.084;5.224;2022-12-18T10:46:52;102644.0;;;0.5;69.52
36834;BME280;48003;52.084;5.224;2022-12-18T10:50:19;102633.99999999999;;;0.52;69.03